sensor_id;sensor_type;location;lat;lon;timestamp;pressure;altitude;pressure_sealevel;temperature;humidity
9721;BME280;4899;42.644;23.366;2023-03-18T00:00:27;94631.84;;;0.51;100.00
9721;BME280;4899;42.644;23.366;2023-03-18T00:02:53;94619.28;;;0.39;100.00
9721;BME280;4899;42.644;23.366;2023-03-18T00:05:19;94613.97;;;0.41;100.00
9721;BME280;4899;42.644;23.366;2023-03-18T00:07:44;94616.03;;;0.44;100.00
9721;BME280;4899;42.644;23.366;2023-03-18T00:10:12;94611.16;;;0.37;100.00
9721;BME280;4899;42.644;23.366;2023-03-18T00:12:39;94621.28;;;0.37;100.00
9721;BME280;4899;42.644;23.366;2023-03-18T00:15:06;94600.69;;;0.28;100.00
9721;BME280;4899;42.644;23.366;2023-03-18T00:17:33;94610.78;;;0.28;100.00
9721;BME280;4899;42.644;23.366;2023-03-18T00:19:59;94599.28;;;0.21;100.00
9721;BME280;4899;42.644;23.366;2023-03-18T00:22:34;94607.97;;;0.25;100.00
9721;BME280;4899;42.644;23.366;2023-03-18T00:25:00;94618.28;;;0.23;100.00
9721;BME280;4899;42.644;23.366;2023-03-18T00:27:26;94607.63;;;0.21;100.00
9721;BME280;4899;42.644;23.366;2023-03-18T00:29:52;94610.56;;;0.13;100.00
9721;BME280;4899;42.644;23.366;2023-03-18T00:32:17;94611.56;;;0.12;100.00
9721;BME280;4899;42.644;23.366;2023-03-18T00:34:43;94585.91;;;0.04;100.00
9721;BME280;4899;42.644;23.366;2023-03-18T00:37:09;94600.00;;;-0.01;100.00
9721;BME280;4899;42.644;23.366;2023-03-18T00:39:43;94590.50;;;-0.10;100.00
9721;BME280;4899;42.644;23.366;2023-03-18T00:42:10;94590.44;;;-0.15;100.00
9721;BME280;4899;42.644;23.366;2023-03-18T00:44:37;94590.38;;;-0.20;100.00
9721;BME280;4899;42.644;23.366;2023-03-18T00:47:03;94582.69;;;-0.25;100.00
9721;BME280;4899;42.644;23.366;2023-03-18T00:49:28;94575.50;;;-0.34;100.00
9721;BME280;4899;42.644;23.366;2023-03-18T00:51:54;94563.25;;;-0.42;100.00
9721;BME280;4899;42.644;23.366;2023-03-18T00:54:20;94571.38;;;-0.40;100.00
9721;BME280;4899;42.644;23.366;2023-03-18T00:56:46;94562.94;;;-0.45;100.00
9721;BME280;4899;42.644;23.366;2023-03-18T00:59:12;94555.06;;;-0.49;100.00
9721;BME280;4899;42.644;23.366;2023-03-18T01:01:38;94554.59;;;-0.46;100.00
9721;BME280;4899;42.644;23.366;2023-03-18T01:04:05;94562.94;;;-0.45;100.00
9721;BME280;4899;42.644;23.366;2023-03-18T01:06:33;94563.94;;;-0.46;100.00
9721;BME280;4899;42.644;23.366;2023-03-18T01:08:59;94559.13;;;-0.48;100.00
9721;BME280;4899;42.644;23.366;2023-03-18T01:11:26;94558.66;;;-0.45;100.00
9721;BME280;4899;42.644;23.366;2023-03-18T01:13:53;94546.41;;;-0.53;100.00
9721;BME280;4899;42.644;23.366;2023-03-18T01:16:19;94550.22;;;-0.50;100.00
9721;BME280;4899;42.644;23.366;2023-03-18T01:18:45;94547.94;;;-0.52;100.00
9721;BME280;4899;42.644;23.366;2023-03-18T01:21:12;94540.88;;;-0.50;100.00
9721;BME280;4899;42.644;23.366;2023-03-18T01:23:38;94546.94;;;-0.51;100.00
9721;BME280;4899;42.644;23.366;2023-03-18T01:26:05;94535.44;;;-0.58;100.00
9721;BME280;4899;42.644;23.366;2023-03-18T01:28:31;94547.84;;;-0.57;100.00
9721;BME280;4899;42.644;23.366;2023-03-18T01:30:57;94537.91;;;-0.64;100.00
9721;BME280;4899;42.644;23.366;2023-03-18T01:33:24;94541.66;;;-0.66;100.00
9721;BME280;4899;42.644;23.366;2023-03-18T01:35:57;94547.16;;;-0.69;100.00
9721;BME280;4899;42.644;23.366;2023-03-18T01:38:25;94537.66;;;-0.79;100.00
9721;BME280;4899;42.644;23.366;2023-03-18T01:40:50;94538.88;;;-0.81;100.00
9721;BME280;4899;42.644;23.366;2023-03-18T01:43:20;94540.84;;;-0.83;100.00
9721;BME280;4899;42.644;23.366;2023-03-18T01:45:53;94545.44;;;-0.80;100.00
9721;BME280;4899;42.644;23.366;2023-03-18T01:48:21;94540.31;;;-0.85;100.00
9721;BME280;4899;42.644;23.366;2023-03-18T01:50:53;94539.88;;;-0.82;100.00
9721;BME280;4899;42.644;23.366;2023-03-18T01:53:20;94541.31;;;-0.86;100.00
9721;BME280;4899;42.644;23.366;2023-03-18T01:55:47;94542.09;;;-0.86;100.00
9721;BME280;4899;42.644;23.366;2023-03-18T01:58:21;94531.13;;;-0.91;100.00
9721;BME280;4899;42.644;23.366;2023-03-18T02:00:56;94535.72;;;-0.88;100.00
9721;BME280;4899;42.644;23.366;2023-03-18T02:03:24;94528.53;;;-0.97;100.00
9721;BME280;4899;42.644;23.366;2023-03-18T02:05:53;94534.00;;;-1.00;100.00
9721;BME280;4899;42.644;23.366;2023-03-18T02:08:19;94524.91;;;-1.01;100.00
9721;BME280;4899;42.644;23.366;2023-03-18T02:10:45;94532.59;;;-0.96;100.00
9721;BME280;4899;42.644;23.366;2023-03-18T02:13:12;94526.44;;;-1.00;100.00
9721;BME280;4899;42.644;23.366;2023-03-18T02:16:00;94524.47;;;-0.98;100.00
9721;BME280;4899;42.644;23.366;2023-03-18T02:18:34;94525.38;;;-1.04;100.00
9721;BME280;4899;42.644;23.366;2023-03-18T02:28:53;94537.00;;;-1.03;100.00
9721;BME280;4899;42.644;23.366;2023-03-18T02:31:22;94537.00;;;-1.03;100.00
9721;BME280;4899;42.644;23.366;2023-03-18T02:33:48;94515.56;;;-1.17;100.00
9721;BME280;4899;42.644;23.366;2023-03-18T02:36:18;94535.91;;;-1.07;100.00
9721;BME280;4899;42.644;23.366;2023-03-18T02:38:45;94532.41;;;-1.06;100.00
9721;BME280;4899;42.644;23.366;2023-03-18T02:41:19;94528.13;;;-1.05;100.00
9721;BME280;4899;42.644;23.366;2023-03-18T02:43:45;94525.81;;;-1.07;100.00
9721;BME280;4899;42.644;23.366;2023-03-18T02:46:19;94530.56;;;-1.10;100.00
9721;BME280;4899;42.644;23.366;2023-03-18T02:48:47;94529.56;;;-1.09;100.00
9721;BME280;4899;42.644;23.366;2023-03-18T02:51:15;94519.38;;;-1.14;100.00
9721;BME280;4899;42.644;23.366;2023-03-18T02:53:41;94523.22;;;-1.12;100.00
9721;BME280;4899;42.644;23.366;2023-03-18T02:56:07;94519.84;;;-1.17;100.00
9721;BME280;4899;42.644;23.366;2023-03-18T02:58:33;94510.84;;;-1.25;100.00
9721;BME280;4899;42.644;23.366;2023-03-18T03:00:59;94522.69;;;-1.14;100.00
9721;BME280;4899;42.644;23.366;2023-03-18T03:03:25;94522.13;;;-1.16;100.00
9721;BME280;4899;42.644;23.366;2023-03-18T03:05:52;94525.66;;;-1.17;100.00
9721;BME280;4899;42.644;23.366;2023-03-18T03:08:18;94514.38;;;-1.26;100.00
9721;BME280;4899;42.644;23.366;2023-03-18T03:10:44;94523.47;;;-1.25;100.00
9721;BME280;4899;42.644;23.366;2023-03-18T03:13:10;94517.81;;;-1.32;100.00
9721;BME280;4899;42.644;23.366;2023-03-18T03:15:38;94525.69;;;-1.29;100.00
9721;BME280;4899;42.644;23.366;2023-03-18T03:18:04;94521.31;;;-1.33;100.00
9721;BME280;4899;42.644;23.366;2023-03-18T03:20:31;94517.50;;;-1.36;100.00
9721;BME280;4899;42.644;23.366;2023-03-18T03:23:00;94516.41;;;-1.40;100.00
9721;BME280;4899;42.644;23.366;2023-03-18T03:25:26;94519.31;;;-1.48;100.00
9721;BME280;4899;42.644;23.366;2023-03-18T03:27:52;94531.22;;;-1.43;100.00
9721;BME280;4899;42.644;23.366;2023-03-18T03:30:18;94526.97;;;-1.55;100.00
9721;BME280;4899;42.644;23.366;2023-03-18T03:32:44;94541.22;;;-1.48;100.00
9721;BME280;4899;42.644;23.366;2023-03-18T03:35:15;94539.66;;;-1.49;100.00
9721;BME280;4899;42.644;23.366;2023-03-18T03:37:41;94525.34;;;-1.61;100.00
9721;BME280;4899;42.644;23.366;2023-03-18T03:40:10;94542.88;;;-1.54;100.00
9721;BME280;4899;42.644;23.366;2023-03-18T03:42:35;94535.22;;;-1.59;100.00
9721;BME280;4899;42.644;23.366;2023-03-18T03:45:02;94544.63;;;-1.55;100.00
9721;BME280;4899;42.644;23.366;2023-03-18T03:47:29;94543.41;;;-1.52;100.00
9721;BME280;4899;42.644;23.366;2023-03-18T03:49:55;94546.16;;;-1.53;100.00
9721;BME280;4899;42.644;23.366;2023-03-18T03:52:21;94542.31;;;-1.56;100.00
9721;BME280;4899;42.644;23.366;2023-03-18T03:54:47;94538.06;;;-1.56;100.00
9721;BME280;4899;42.644;23.366;2023-03-18T03:57:12;94532.69;;;-1.59;100.00
9721;BME280;4899;42.644;23.366;2023-03-18T03:59:38;94529.31;;;-1.65;100.00
9721;BME280;4899;42.644;23.366;2023-03-18T04:02:03;94540.38;;;-1.66;100.00
9721;BME280;4899;42.644;23.366;2023-03-18T04:04:29;94543.13;;;-1.67;100.00
9721;BME280;4899;42.644;23.366;2023-03-18T04:06:54;94536.00;;;-1.70;100.00
9721;BME280;4899;42.644;23.366;2023-03-18T04:09:20;94547.50;;;-1.63;100.00
9721;BME280;4899;42.644;23.366;2023-03-18T04:11:46;94551.00;;;-1.64;100.00
9721;BME280;4899;42.644;23.366;2023-03-18T04:14:11;94537.00;;;-1.71;100.00
9721;BME280;4899;42.644;23.366;2023-03-18T04:16:37;94555.59;;;-1.61;100.00
9721;BME280;4899;42.644;23.366;2023-03-18T04:19:02;94557.13;;;-1.60;100.00
9721;BME280;4899;42.644;23.366;2023-03-18T04:21:28;94548.84;;;-1.72;100.00
9721;BME280;4899;42.644;23.366;2023-03-18T04:23:54;94564.16;;;-1.62;100.00
9721;BME280;4899;42.644;23.366;2023-03-18T04:26:21;94568.56;;;-1.69;100.00
9721;BME280;4899;42.644;23.366;2023-03-18T04:28:47;94575.16;;;-1.68;100.00
9721;BME280;4899;42.644;23.366;2023-03-18T04:31:12;94565.59;;;-1.77;100.00
9721;BME280;4899;42.644;23.366;2023-03-18T04:33:39;94571.75;;;-1.73;100.00
9721;BME280;4899;42.644;23.366;2023-03-18T04:36:05;94561.66;;;-1.85;100.00
9721;BME280;4899;42.644;23.366;2023-03-18T04:38:31;94580.72;;;-1.77;100.00
9721;BME280;4899;42.644;23.366;2023-03-18T04:40:56;94579.50;;;-1.75;100.00
9721;BME280;4899;42.644;23.366;2023-03-18T04:43:22;94578.53;;;-1.74;100.00
9721;BME280;4899;42.644;23.366;2023-03-18T04:45:47;94586.22;;;-1.69;100.00
9721;BME280;4899;42.644;23.366;2023-03-18T04:48:13;94555.53;;;-1.89;100.00
9721;BME280;4899;42.644;23.366;2023-03-18T04:50:38;94595.19;;;-1.61;100.00
9721;BME280;4899;42.644;23.366;2023-03-18T04:53:04;94593.97;;;-1.59;100.00
9721;BME280;4899;42.644;23.366;2023-03-18T04:55:30;94603.72;;;-1.50;100.00
9721;BME280;4899;42.644;23.366;2023-03-18T04:57:56;94600.00;;;-1.48;100.00
9721;BME280;4899;42.644;23.366;2023-03-18T05:00:21;94600.56;;;-1.46;100.00
9721;BME280;4899;42.644;23.366;2023-03-18T05:02:48;94600.88;;;-1.42;100.00
9721;BME280;4899;42.644;23.366;2023-03-18T05:05:14;94594.84;;;-1.41;100.00
9721;BME280;4899;42.644;23.366;2023-03-18T05:07:40;94601.28;;;-1.34;100.00
9721;BME280;4899;42.644;23.366;2023-03-18T05:10:07;94598.84;;;-1.29;100.00
9721;BME280;4899;42.644;23.366;2023-03-18T05:12:33;94562.50;;;-1.44;100.00
9721;BME280;4899;42.644;23.366;2023-03-18T05:14:59;94585.56;;;-1.24;100.00
9721;BME280;4899;42.644;23.366;2023-03-18T05:17:24;94588.19;;;-1.19;100.00
9721;BME280;4899;42.644;23.366;2023-03-18T05:19:50;94588.84;;;-1.12;100.00
9721;BME280;4899;42.644;23.366;2023-03-18T05:22:17;94586.66;;;-1.20;100.00
9721;BME280;4899;42.644;23.366;2023-03-18T05:24:44;94578.97;;;-1.25;100.00
9721;BME280;4899;42.644;23.366;2023-03-18T05:27:11;94570.56;;;-1.31;100.00
9721;BME280;4899;42.644;23.366;2023-03-18T05:29:37;94590.59;;;-1.24;100.00
9721;BME280;4899;42.644;23.366;2023-03-18T05:32:05;94585.00;;;-1.14;100.00
9721;BME280;4899;42.644;23.366;2023-03-18T05:34:34;94584.31;;;-1.10;100.00
9721;BME280;4899;42.644;23.366;2023-03-18T05:37:02;94587.94;;;-1.06;100.00
9721;BME280;4899;42.644;23.366;2023-03-18T05:39:29;94580.34;;;-1.06;100.00
9721;BME280;4899;42.644;23.366;2023-03-18T05:41:55;94581.78;;;-0.98;100.00
9721;BME280;4899;42.644;23.366;2023-03-18T05:44:21;94582.94;;;-0.89;100.00
9721;BME280;4899;42.644;23.366;2023-03-18T05:46:47;94581.09;;;-0.77;100.00
9721;BME280;4899;42.644;23.366;2023-03-18T05:49:13;94575.47;;;-0.67;100.00
9721;BME280;4899;42.644;23.366;2023-03-18T05:51:38;94578.16;;;-0.57;100.00
9721;BME280;4899;42.644;23.366;2023-03-18T05:54:04;94588.88;;;-0.50;100.00
9721;BME280;4899;42.644;23.366;2023-03-18T05:56:30;94591.41;;;-0.50;100.00
9721;BME280;4899;42.644;23.366;2023-03-18T05:58:56;94589.09;;;-0.51;100.00
9721;BME280;4899;42.644;23.366;2023-03-18T06:01:22;94596.09;;;-0.42;100.00
9721;BME280;4899;42.644;23.366;2023-03-18T06:03:49;94601.59;;;-0.28;100.00
9721;BME280;4899;42.644;23.366;2023-03-18T06:06:15;94607.06;;;-0.19;100.00
9721;BME280;4899;42.644;23.366;2023-03-18T06:08:42;94599.94;;;-0.06;100.00
9721;BME280;4899;42.644;23.366;2023-03-18T06:11:07;94595.41;;;0.13;100.00
9721;BME280;4899;42.644;23.366;2023-03-18T06:13:33;94583.88;;;0.22;100.00
9721;BME280;4899;42.644;23.366;2023-03-18T06:15:58;94604.69;;;0.46;100.00
9721;BME280;4899;42.644;23.366;2023-03-18T06:18:25;94594.94;;;0.55;100.00
9721;BME280;4899;42.644;23.366;2023-03-18T06:20:51;94614.44;;;0.76;100.00
9721;BME280;4899;42.644;23.366;2023-03-18T06:23:16;94615.56;;;0.85;100.00
9721;BME280;4899;42.644;23.366;2023-03-18T06:25:43;94608.97;;;0.84;100.00
9721;BME280;4899;42.644;23.366;2023-03-18T06:28:11;94598.81;;;0.84;100.00
9721;BME280;4899;42.644;23.366;2023-03-18T06:30:38;94614.19;;;1.00;100.00
9721;BME280;4899;42.644;23.366;2023-03-18T06:33:03;94611.47;;;1.06;100.00
9721;BME280;4899;42.644;23.366;2023-03-18T06:35:29;94605.69;;;1.11;100.00
9721;BME280;4899;42.644;23.366;2023-03-18T06:37:55;94598.72;;;1.23;100.00
9721;BME280;4899;42.644;23.366;2023-03-18T06:40:21;94596.78;;;1.30;100.00
9721;BME280;4899;42.644;23.366;2023-03-18T06:42:49;94588.22;;;1.36;100.00
9721;BME280;4899;42.644;23.366;2023-03-18T06:45:15;94585.75;;;1.46;100.00
9721;BME280;4899;42.644;23.366;2023-03-18T06:47:43;94588.28;;;1.46;100.00
9721;BME280;4899;42.644;23.366;2023-03-18T06:50:09;94585.84;;;1.57;100.00
9721;BME280;4899;42.644;23.366;2023-03-18T06:52:36;94589.47;;;1.66;100.00
9721;BME280;4899;42.644;23.366;2023-03-18T06:55:04;94593.13;;;1.75;100.00
9721;BME280;4899;42.644;23.366;2023-03-18T06:57:30;94586.06;;;1.82;100.00
9721;BME280;4899;42.644;23.366;2023-03-18T06:59:57;94580.56;;;1.95;100.00
9721;BME280;4899;42.644;23.366;2023-03-18T07:02:23;94592.88;;;2.13;100.00
9721;BME280;4899;42.644;23.366;2023-03-18T07:04:50;94584.78;;;2.22;100.00
9721;BME280;4899;42.644;23.366;2023-03-18T07:07:15;94582.31;;;2.27;100.00
9721;BME280;4899;42.644;23.366;2023-03-18T07:09:42;94583.09;;;2.37;100.00
9721;BME280;4899;42.644;23.366;2023-03-18T07:12:11;94588.53;;;2.51;100.00
9721;BME280;4899;42.644;23.366;2023-03-18T07:14:39;94587.53;;;2.57;100.00
9721;BME280;4899;42.644;23.366;2023-03-18T07:17:05;94576.88;;;2.60;100.00
9721;BME280;4899;42.644;23.366;2023-03-18T07:19:30;94584.00;;;2.63;100.00
9721;BME280;4899;42.644;23.366;2023-03-18T07:21:57;94586.06;;;2.71;100.00
9721;BME280;4899;42.644;23.366;2023-03-18T07:24:23;94578.44;;;2.71;100.00
9721;BME280;4899;42.644;23.366;2023-03-18T07:26:51;94589.16;;;2.89;100.00
9721;BME280;4899;42.644;23.366;2023-03-18T07:29:18;94594.56;;;3.02;100.00
9721;BME280;4899;42.644;23.366;2023-03-18T07:31:45;94581.59;;;3.04;100.00
9721;BME280;4899;42.644;23.366;2023-03-18T07:34:12;94598.91;;;3.17;100.00
9721;BME280;4899;42.644;23.366;2023-03-18T07:36:37;94605.06;;;3.26;100.00
9721;BME280;4899;42.644;23.366;2023-03-18T07:39:04;94608.06;;;3.18;100.00
9721;BME280;4899;42.644;23.366;2023-03-18T07:41:30;94595.34;;;3.13;100.00
9721;BME280;4899;42.644;23.366;2023-03-18T07:43:56;94595.59;;;3.06;100.00
9721;BME280;4899;42.644;23.366;2023-03-18T07:46:21;94589.25;;;3.09;100.00
9721;BME280;4899;42.644;23.366;2023-03-18T07:48:47;94591.03;;;3.14;100.00
9721;BME280;4899;42.644;23.366;2023-03-18T07:51:14;94602.50;;;3.31;100.00
9721;BME280;4899;42.644;23.366;2023-03-18T07:53:41;94598.97;;;3.43;100.00
9721;BME280;4899;42.644;23.366;2023-03-18T07:56:07;94602.56;;;3.52;100.00
9721;BME280;4899;42.644;23.366;2023-03-18T07:58:34;94595.41;;;3.44;100.00
9721;BME280;4899;42.644;23.366;2023-03-18T08:01:00;94606.88;;;3.51;100.00
9721;BME280;4899;42.644;23.366;2023-03-18T08:03:26;94604.06;;;3.53;100.00
9721;BME280;4899;42.644;23.366;2023-03-18T08:05:53;94602.81;;;3.60;100.00
9721;BME280;4899;42.644;23.366;2023-03-18T08:08:18;94605.63;;;3.74;100.00
9721;BME280;4899;42.644;23.366;2023-03-18T08:10:44;94596.97;;;3.80;100.00
9721;BME280;4899;42.644;23.366;2023-03-18T08:13:10;94589.31;;;3.90;100.00
9721;BME280;4899;42.644;23.366;2023-03-18T08:15:37;94600.03;;;3.97;100.00
9721;BME280;4899;42.644;23.366;2023-03-18T08:18:03;94592.38;;;4.03;100.00
9721;BME280;4899;42.644;23.366;2023-03-18T08:20:28;94598.00;;;4.05;100.00
9721;BME280;4899;42.644;23.366;2023-03-18T08:22:54;94595.94;;;4.12;100.00
9721;BME280;4899;42.644;23.366;2023-03-18T08:25:20;94587.25;;;4.18;100.00
9721;BME280;4899;42.644;23.366;2023-03-18T08:27:47;94598.97;;;4.34;100.00
9721;BME280;4899;42.644;23.366;2023-03-18T08:30:12;94607.59;;;4.53;100.00
9721;BME280;4899;42.644;23.366;2023-03-18T08:32:39;94602.94;;;4.71;100.00
9721;BME280;4899;42.644;23.366;2023-03-18T08:35:04;94600.34;;;4.86;100.00
9721;BME280;4899;42.644;23.366;2023-03-18T08:37:30;94595.47;;;5.00;100.00
9721;BME280;4899;42.644;23.366;2023-03-18T08:39:55;94591.84;;;5.06;100.00
9721;BME280;4899;42.644;23.366;2023-03-18T08:42:21;94608.34;;;5.18;100.00
9721;BME280;4899;42.644;23.366;2023-03-18T08:44:47;94594.00;;;5.33;100.00
9721;BME280;4899;42.644;23.366;2023-03-18T08:47:13;94588.59;;;5.39;100.00
9721;BME280;4899;42.644;23.366;2023-03-18T08:49:38;94608.88;;;5.60;100.00
9721;BME280;4899;42.644;23.366;2023-03-18T08:52:04;94598.91;;;5.63;100.00
9721;BME280;4899;42.644;23.366;2023-03-18T08:54:31;94602.22;;;5.64;100.00
9721;BME280;4899;42.644;23.366;2023-03-18T08:56:56;94601.16;;;5.70;100.00
9721;BME280;4899;42.644;23.366;2023-03-18T08:59:22;94600.78;;;5.86;100.00
9721;BME280;4899;42.644;23.366;2023-03-18T09:01:47;94597.16;;;5.98;100.00
9721;BME280;4899;42.644;23.366;2023-03-18T09:04:13;94613.88;;;6.14;100.00
9721;BME280;4899;42.644;23.366;2023-03-18T09:06:39;94599.72;;;6.27;100.00
9721;BME280;4899;42.644;23.366;2023-03-18T09:09:06;94612.06;;;6.43;100.00
9721;BME280;4899;42.644;23.366;2023-03-18T09:11:32;94607.47;;;6.45;100.00
9721;BME280;4899;42.644;23.366;2023-03-18T09:13:58;94608.50;;;6.44;100.00
9721;BME280;4899;42.644;23.366;2023-03-18T09:16:23;94604.53;;;6.57;100.00
9721;BME280;4899;42.644;23.366;2023-03-18T09:18:49;94609.22;;;6.74;100.00
9721;BME280;4899;42.644;23.366;2023-03-18T09:21:14;94605.16;;;6.92;100.00
9721;BME280;4899;42.644;23.366;2023-03-18T09:23:40;94609.97;;;6.98;100.00
9721;BME280;4899;42.644;23.366;2023-03-18T09:26:05;94608.03;;;7.09;100.00
9721;BME280;4899;42.644;23.366;2023-03-18T09:28:31;94610.75;;;7.18;100.00
9721;BME280;4899;42.644;23.366;2023-03-18T09:30:56;94618.63;;;7.40;97.99
9721;BME280;4899;42.644;23.366;2023-03-18T09:33:22;94615.88;;;7.55;96.38
9721;BME280;4899;42.644;23.366;2023-03-18T09:35:48;94614.50;;;7.63;92.47
9721;BME280;4899;42.644;23.366;2023-03-18T09:38:16;94614.09;;;7.75;87.61
9721;BME280;4899;42.644;23.366;2023-03-18T09:40:54;94619.25;;;7.88;85.02
9721;BME280;4899;42.644;23.366;2023-03-18T09:57:04;94608.75;;;8.22;78.22
9721;BME280;4899;42.644;23.366;2023-03-18T09:59:38;94617.22;;;8.04;62.37
9721;BME280;4899;42.644;23.366;2023-03-18T10:04:45;94609.69;;;8.26;74.68
9721;BME280;4899;42.644;23.366;2023-03-18T10:07:16;94609.19;;;8.57;72.26
9721;BME280;4899;42.644;23.366;2023-03-18T10:09:45;94615.66;;;8.68;66.12
9721;BME280;4899;42.644;23.366;2023-03-18T10:12:20;94611.56;;;8.81;66.55
9721;BME280;4899;42.644;23.366;2023-03-18T10:14:59;94616.78;;;8.89;65.58
9721;BME280;4899;42.644;23.366;2023-03-18T10:17:42;94615.00;;;8.76;62.04
9721;BME280;4899;42.644;23.366;2023-03-18T10:23:13;94614.34;;;8.71;60.05
9721;BME280;4899;42.644;23.366;2023-03-18T10:26:03;94609.28;;;9.07;58.15
9721;BME280;4899;42.644;23.366;2023-03-18T10:28:39;94610.97;;;9.25;58.51
9721;BME280;4899;42.644;23.366;2023-03-18T10:34:16;94611.44;;;9.27;56.33
9721;BME280;4899;42.644;23.366;2023-03-18T10:39:26;94602.94;;;9.40;55.83
9721;BME280;4899;42.644;23.366;2023-03-18T10:41:53;94600.81;;;9.56;55.74
9721;BME280;4899;42.644;23.366;2023-03-18T10:44:33;94601.06;;;9.68;51.54
9721;BME280;4899;42.644;23.366;2023-03-18T10:47:08;94597.81;;;9.76;54.73
9721;BME280;4899;42.644;23.366;2023-03-18T10:49:40;94614.75;;;10.00;54.11
9721;BME280;4899;42.644;23.366;2023-03-18T10:52:16;94608.97;;;10.16;53.46
9721;BME280;4899;42.644;23.366;2023-03-18T10:54:44;94607.53;;;10.33;53.81
9721;BME280;4899;42.644;23.366;2023-03-18T10:57:16;94605.91;;;10.37;51.22
9721;BME280;4899;42.644;23.366;2023-03-18T10:59:42;94589.88;;;10.40;50.42
9721;BME280;4899;42.644;23.366;2023-03-18T11:04:55;94596.16;;;10.96;51.74
9721;BME280;4899;42.644;23.366;2023-03-18T11:07:26;94583.00;;;11.15;51.18
9721;BME280;4899;42.644;23.366;2023-03-18T11:09:53;94582.38;;;11.00;49.24
9721;BME280;4899;42.644;23.366;2023-03-18T11:12:24;94585.13;;;10.64;48.47
9721;BME280;4899;42.644;23.366;2023-03-18T11:14:51;94576.03;;;10.50;50.28
9721;BME280;4899;42.644;23.366;2023-03-18T11:17:20;94593.13;;;10.54;50.21
9721;BME280;4899;42.644;23.366;2023-03-18T11:22:31;94588.38;;;10.39;49.82
9721;BME280;4899;42.644;23.366;2023-03-18T11:27:45;94587.44;;;10.35;49.79
9721;BME280;4899;42.644;23.366;2023-03-18T11:30:26;94590.03;;;11.49;46.33
9721;BME280;4899;42.644;23.366;2023-03-18T11:32:54;94600.59;;;12.72;46.95
9721;BME280;4899;42.644;23.366;2023-03-18T11:35:50;94576.03;;;12.19;44.00
9721;BME280;4899;42.644;23.366;2023-03-18T11:38:30;94574.63;;;14.35;40.97
9721;BME280;4899;42.644;23.366;2023-03-18T11:41:13;94567.06;;;14.63;39.21
9721;BME280;4899;42.644;23.366;2023-03-18T11:44:05;94560.97;;;13.89;40.80
9721;BME280;4899;42.644;23.366;2023-03-18T11:46:56;94592.81;;;13.18;44.35
9721;BME280;4899;42.644;23.366;2023-03-18T11:49:26;94595.41;;;12.33;46.80
9721;BME280;4899;42.644;23.366;2023-03-18T11:55:16;94577.66;;;14.37;39.12
9721;BME280;4899;42.644;23.366;2023-03-18T11:58:03;94580.19;;;15.19;40.53
9721;BME280;4899;42.644;23.366;2023-03-18T12:03:32;94587.84;;;13.76;41.66
9721;BME280;4899;42.644;23.366;2023-03-18T12:06:15;94579.13;;;14.71;40.22
9721;BME280;4899;42.644;23.366;2023-03-18T12:17:00;94606.41;;;15.82;41.82
9721;BME280;4899;42.644;23.366;2023-03-18T12:25:30;94566.38;;;15.55;36.29
9721;BME280;4899;42.644;23.366;2023-03-18T12:28:02;94619.91;;;14.86;41.88
9721;BME280;4899;42.644;23.366;2023-03-18T12:33:28;94579.94;;;13.31;38.90
9721;BME280;4899;42.644;23.366;2023-03-18T12:36:26;94606.41;;;12.98;41.13
9721;BME280;4899;42.644;23.366;2023-03-18T12:41:56;94522.63;;;15.53;35.94
9721;BME280;4899;42.644;23.366;2023-03-18T12:47:07;94566.38;;;16.86;37.10
9721;BME280;4899;42.644;23.366;2023-03-18T12:55:24;94599.53;;;15.21;38.69
9721;BME280;4899;42.644;23.366;2023-03-18T12:58:12;94586.50;;;13.91;37.37
9721;BME280;4899;42.644;23.366;2023-03-18T13:01:10;94578.56;;;15.26;36.22
9721;BME280;4899;42.644;23.366;2023-03-18T13:03:54;94549.63;;;17.18;34.60
9721;BME280;4899;42.644;23.366;2023-03-18T13:06:28;94576.94;;;16.77;37.39
9721;BME280;4899;42.644;23.366;2023-03-18T13:09:00;94602.28;;;15.93;39.56
9721;BME280;4899;42.644;23.366;2023-03-18T13:17:06;94574.34;;;16.93;37.79
9721;BME280;4899;42.644;23.366;2023-03-18T13:19:34;94570.19;;;17.08;36.96
9721;BME280;4899;42.644;23.366;2023-03-18T13:24:51;94553.09;;;17.07;35.56
9721;BME280;4899;42.644;23.366;2023-03-18T13:30:03;94522.25;;;18.97;31.85
9721;BME280;4899;42.644;23.366;2023-03-18T13:32:53;94472.13;;;20.15;28.35
9721;BME280;4899;42.644;23.366;2023-03-18T13:38:08;94461.88;;;22.10;27.92
9721;BME280;4899;42.644;23.366;2023-03-18T13:43:13;94521.63;;;19.33;32.31
9721;BME280;4899;42.644;23.366;2023-03-18T13:45:44;94537.06;;;17.59;33.98
9721;BME280;4899;42.644;23.366;2023-03-18T13:48:20;94538.16;;;17.04;32.42
9721;BME280;4899;42.644;23.366;2023-03-18T13:50:49;94545.25;;;18.88;33.17
9721;BME280;4899;42.644;23.366;2023-03-18T13:53:27;94502.56;;;20.92;29.35
9721;BME280;4899;42.644;23.366;2023-03-18T14:06:24;94365.56;;;24.78;22.77
9721;BME280;4899;42.644;23.366;2023-03-18T14:11:47;94413.75;;;25.09;27.95
9721;BME280;4899;42.644;23.366;2023-03-18T14:17:15;94371.72;;;25.33;25.99
9721;BME280;4899;42.644;23.366;2023-03-18T14:19:43;94372.97;;;25.21;25.25
9721;BME280;4899;42.644;23.366;2023-03-18T14:22:29;94371.34;;;24.66;24.06
9721;BME280;4899;42.644;23.366;2023-03-18T14:27:54;94431.81;;;21.43;27.51
9721;BME280;4899;42.644;23.366;2023-03-18T14:33:05;94436.00;;;21.98;26.97
9721;BME280;4899;42.644;23.366;2023-03-18T14:38:47;94412.44;;;24.08;23.32
9721;BME280;4899;42.644;23.366;2023-03-18T14:41:23;94414.13;;;24.74;23.71
9721;BME280;4899;42.644;23.366;2023-03-18T14:43:57;94397.50;;;25.45;25.03
9721;BME280;4899;42.644;23.366;2023-03-18T14:46:31;94392.69;;;25.67;24.56
9721;BME280;4899;42.644;23.366;2023-03-18T14:48:58;94386.66;;;25.66;24.89
9721;BME280;4899;42.644;23.366;2023-03-18T14:51:26;94377.50;;;25.21;24.48
9721;BME280;4899;42.644;23.366;2023-03-18T14:54:04;94349.22;;;25.25;21.78
9721;BME280;4899;42.644;23.366;2023-03-18T14:56:51;94360.94;;;25.20;21.79
9721;BME280;4899;42.644;23.366;2023-03-18T14:59:17;94380.47;;;25.53;24.29
9721;BME280;4899;42.644;23.366;2023-03-18T15:01:45;94365.94;;;25.41;23.83
9721;BME280;4899;42.644;23.366;2023-03-18T15:04:22;94360.44;;;25.02;22.95
9721;BME280;4899;42.644;23.366;2023-03-18T15:06:49;94374.19;;;24.82;23.83
9721;BME280;4899;42.644;23.366;2023-03-18T15:09:22;94375.66;;;24.08;22.74
9721;BME280;4899;42.644;23.366;2023-03-18T15:11:51;94381.66;;;23.57;24.04